Latest Weather Observations for Pallamana

IDS60901

Issued at 12:41 pm CST Monday 26 August 2019 (issued every 10 minutes, with the page automatically refreshed every 10 minutes)

About weather observations | Map of Adelaide area stations | Latest observations for Adelaide area | Other Formats
Station Details ID: 024584 Name: PALLAMANA AERODROME Lat: -35.06 Lon: 139.23 Height: 45.0 m
Data from the previous 72 hours. | See also: Recent months at Pallamana
Date/Time
CST
Temp
°C
App
Temp
°C
Dew
Point
°C
Rel
Hum
%
Delta-T
°C
Wind Press
QNH
hPa
Press
MSL
hPa
Rain since
9am
mm
Dir  Spd
km/h
Gust
km/h
Spd
kts
Gust
kts
26/12:30pm 13.3 10.8 4.0 53 4.2 SSW 6 7 3 4 1027.4 1027.5 0.0
26/12:00pm 12.7 10.0 5.4 61 3.4 SSE 9 13 5 7 1027.9 1028.0 0.0
26/11:30am 13.1 10.8 5.6 60 3.5 NE 7 9 4 5 1028.3 1028.4 0.0
26/11:00am 11.3 9.8 6.6 73 2.2 WSW 4 7 2 4 1028.6 1028.7 0.0
26/10:30am 10.6 7.3 6.3 75 2.0 SW 13 17 7 9 1028.8 1028.9 0.0
26/10:00am 12.2 10.4 7.0 70 2.5 E 6 9 3 5 1028.9 1029.0 0.0
26/09:30am 11.3 9.1 7.8 79 1.7 SE 9 13 5 7 1029.1 1029.2 0.0
26/09:00am 10.5 8.2 7.3 80 1.5 SSE 9 13 5 7 1029.1 1029.2 0.0
26/08:30am 10.6 8.8 7.2 79 1.6 WSW 6 11 3 6 1029.1 1029.2 0.0
26/08:00am 9.1 6.6 6.5 84 1.2 NW 9 13 5 7 1028.9 1029.0 0.0
26/07:30am 7.8 3.5 5.3 84 1.1 W 17 19 9 10 1028.6 1028.7 0.0
26/07:00am 7.0 2.7 5.2 88 0.8 W 17 20 9 11 1028.4 1028.5 0.0
26/06:30am 6.4 2.8 4.8 89 0.7 WSW 13 17 7 9 1028.0 1028.1 0.0
26/06:00am 5.8 1.2 3.9 88 0.8 W 17 20 9 11 1027.8 1027.9 0.0
26/05:30am 5.2 1.3 3.5 89 0.7 W 13 19 7 10 1027.6 1027.7 0.0
26/05:00am 3.7 0.1 3.2 97 0.2 W 11 17 6 9 1027.5 1027.6 0.0
26/04:30am 1.8 -1.2 1.0 94 0.3 S 6 7 3 4 1027.2 1027.3 0.0
26/04:00am 2.8 0.7 1.5 91 0.5 W 2 7 1 4 1027.1 1027.2 0.0
26/03:30am 5.0 1.8 3.0 87 0.8 W 9 13 5 7 1026.9 1027.0 0.0
26/03:00am 5.4 1.1 3.0 84 1.0 W 15 17 8 9 1026.9 1027.0 0.0
26/02:30am 5.4 1.5 3.2 86 0.9 W 13 15 7 8 1027.1 1027.2 0.0
26/02:00am 5.8 1.5 3.1 83 1.1 W 15 17 8 9 1027.2 1027.3 0.0
26/01:30am 6.1 2.2 3.5 83 1.1 W 13 17 7 9 1027.3 1027.4 0.0
26/01:00am 5.3 1.4 3.4 87 0.8 W 13 17 7 9 1027.3 1027.4 0.0
26/12:30am 0.5 -3.2 -0.1 96 0.2 W 9 11 5 6 1027.4 1027.5 0.0
26/12:00am 1.2 -1.2 -0.2 90 0.5 ESE 2 6 1 3 1027.5 1027.6 0.0
 
Date/Time
CST
Temp
°C
App
Temp
°C
Dew
Point
°C
Rel
Hum
%
Delta-T
°C
Wind Press
QNH
hPa
Press
MSL
hPa
Rain since
9am
mm
Dir  Spd
km/h
Gust
km/h
Spd
kts
Gust
kts
25/11:30pm 2.9 0.7 1.3 89 0.6 SW 2 7 1 4 1027.5 1027.6 0.0
25/11:00pm 2.2 0.4 0.9 91 0.5 CALM 0 6 0 3 1027.8 1027.9 0.0
25/10:30pm 3.5 -0.1 0.9 83 1.0 W 9 11 5 6 1027.7 1027.8 0.0
25/10:00pm 3.6 0.1 1.5 86 0.8 W 9 13 5 7 1027.8 1027.9 0.0
25/09:30pm 5.2 1.6 3.0 86 0.9 W 11 13 6 7 1027.7 1027.8 0.0
25/09:00pm 5.5 1.6 3.3 86 0.9 W 13 15 7 8 1027.6 1027.7 0.0
25/08:30pm 3.7 -0.2 1.4 85 0.9 WSW 11 13 6 7 1027.5 1027.6 0.0
25/08:00pm 5.4 1.5 3.2 86 0.9 SW 13 15 7 8 1027.4 1027.5 0.0
25/07:30pm 5.5 1.6 3.3 86 0.9 SW 13 15 7 8 1027.2 1027.3 0.0
25/07:00pm 5.0 0.9 2.5 84 1.0 SW 13 15 7 8 1027.0 1027.1 0.0
25/06:30pm 6.5 2.2 3.4 80 1.3 SW 15 15 8 8 1026.7 1026.8 0.0
25/06:00pm 7.0 3.2 3.7 79 1.4 SW 13 15 7 8 1026.4 1026.5 0.0
25/05:30pm 9.7 5.1 3.5 65 2.7 SSW 17 22 9 12 1026.0 1026.1 0.0
25/05:00pm 11.1 6.5 3.9 61 3.2 SSW 17 22 9 12 1025.7 1025.8 0.0
25/04:30pm 11.7 6.4 2.1 51 4.1 SSW 19 26 10 14 1025.5 1025.6 0.0
25/04:00pm 12.3 7.0 2.9 52 4.1 S 20 28 11 15 1025.2 1025.3 0.0
25/03:30pm 12.6 7.5 2.8 51 4.3 S 19 28 10 15 1025.0 1025.1 0.0
25/03:00pm 11.7 6.2 3.8 58 3.5 S 22 32 12 17 1025.0 1025.1 0.0
25/02:30pm 13.5 8.3 3.7 51 4.4 SSW 20 26 11 14 1025.1 1025.2 0.0
25/02:00pm 13.0 6.8 2.4 48 4.6 SSW 24 33 13 18 1025.3 1025.4 0.0
25/01:30pm 13.0 8.3 3.0 50 4.4 S 17 22 9 12 1025.4 1025.5 0.0
25/01:00pm 14.0 8.8 2.4 45 5.1 SW 19 33 10 18 1025.6 1025.7 0.0
25/12:30pm 12.5 7.8 2.9 52 4.2 WSW 17 26 9 14 1025.8 1025.9 0.0
25/12:00pm 10.5 5.0 5.9 73 2.1 WSW 24 33 13 18 1026.2 1026.3 0.0
25/11:30am 11.1 6.6 4.4 63 3.0 SW 17 28 9 15 1026.3 1026.4 0.0
25/11:00am 10.8 6.6 3.7 61 3.1 W 15 19 8 10 1026.3 1026.4 0.0
25/10:30am 10.9 7.3 4.9 66 2.7 SW 13 19 7 10 1026.3 1026.4 0.0
25/10:00am 11.0 7.4 5.0 66 2.7 SSW 13 20 7 11 1026.2 1026.3 0.0
25/09:30am 11.0 7.5 5.5 69 2.5 SW 13 20 7 11 1026.2 1026.3 0.0
25/09:00am 9.5 5.3 5.5 76 1.8 WSW 17 20 9 11 1026.3 1026.4 0.0
25/08:30am 9.1 4.4 5.1 76 1.8 WSW 19 24 10 13 1026.0 1026.1 0.0
25/08:00am 8.6 4.5 4.5 75 1.8 W 15 20 8 11 1025.6 1025.7 0.0
25/07:30am 7.2 3.0 3.7 78 1.5 W 15 20 8 11 1025.1 1025.2 0.0
25/07:00am 6.4 1.8 3.5 82 1.2 WSW 17 19 9 10 1024.7 1024.8 0.0
25/06:30am 5.9 1.2 3.3 83 1.1 WSW 17 20 9 11 1024.5 1024.6 0.0
25/06:00am 5.4 0.2 2.4 81 1.2 WSW 19 20 10 11 1024.2 1024.3 0.0
25/05:30am 5.3 0.5 2.6 83 1.1 WSW 17 19 9 10 1023.9 1024.0 0.0
25/05:00am 5.5 0.6 2.3 80 1.3 WSW 17 20 9 11 1023.8 1023.9 0.0
25/04:30am 5.4 0.9 1.9 78 1.4 WSW 15 17 8 9 1023.4 1023.5 0.0
25/04:00am 6.0 1.5 2.3 77 1.5 WSW 15 19 8 10 1023.2 1023.3 0.0
25/03:30am 6.8 2.2 3.5 79 1.4 WSW 17 19 9 10 1023.1 1023.2 0.0
25/03:00am 5.7 0.9 2.5 80 1.3 WSW 17 19 9 10 1023.0 1023.1 0.0
25/02:30am 7.0 2.8 4.0 81 1.3 WSW 15 19 8 10 1023.1 1023.2 0.0
25/02:00am 6.4 2.6 3.8 83 1.1 WSW 13 17 7 9 1023.2 1023.3 0.0
25/01:30am 6.5 2.3 3.9 83 1.1 WSW 15 19 8 10 1023.2 1023.3 0.0
25/01:00am 5.8 0.7 3.1 83 1.1 WSW 19 20 10 11 1023.1 1023.2 0.0
25/12:30am 6.0 1.0 3.4 83 1.1 WSW 19 20 10 11 1023.0 1023.1 0.0
25/12:00am 6.5 1.9 3.9 83 1.1 WSW 17 19 9 10 1022.9 1023.0 0.0
 
Date/Time
CST
Temp
°C
App
Temp
°C
Dew
Point
°C
Rel
Hum
%
Delta-T
°C
Wind Press
QNH
hPa
Press
MSL
hPa
Rain since
9am
mm
Dir  Spd
km/h
Gust
km/h
Spd
kts
Gust
kts
24/11:30pm 5.9 1.8 4.3 89 0.7 WSW 15 17 8 9 1022.9 1023.0 0.0
24/11:00pm 6.3 2.3 4.7 89 0.7 WSW 15 17 8 9 1023.1 1023.2 0.0
24/10:30pm 6.1 1.6 4.2 88 0.8 WSW 17 19 9 10 1022.9 1023.0 0.0
24/10:00pm 6.2 1.7 4.3 88 0.8 WSW 17 19 9 10 1022.8 1022.9 0.0
24/09:30pm 6.9 2.5 4.8 86 0.9 WSW 17 20 9 11 1022.7 1022.8 0.0
24/09:00pm 7.2 2.6 5.4 88 0.8 WSW 19 20 10 11 1022.3 1022.4 0.0
24/08:30pm 7.0 3.0 4.9 86 0.9 WSW 15 17 8 9 1022.0 1022.1 0.0
24/08:00pm 8.1 3.4 6.1 87 0.9 WSW 20 26 11 14 1021.6 1021.7 0.0
24/07:30pm 8.1 3.9 5.7 85 1.1 WSW 17 19 9 10 1021.4 1021.5 0.0
24/07:00pm 6.9 3.2 4.6 85 1.0 WSW 13 15 7 8 1021.0 1021.0 0.0
24/06:30pm 7.9 4.5 5.7 86 1.0 SW 13 17 7 9 1020.5 1020.5 0.0
24/06:00pm 8.5 5.0 5.6 82 1.3 SSW 13 15 7 8 1020.1 1020.1 0.0
24/05:30pm 10.4 5.8 5.4 71 2.3 SSW 19 26 10 14 1019.8 1019.8 0.0
24/05:00pm 11.3 5.6 4.9 65 2.9 SSW 24 35 13 19 1019.4 1019.4 0.0
24/04:30pm 12.1 5.1 6.2 67 2.8 SSW 32 43 17 23 1018.9 1018.9 0.0
24/04:00pm 12.4 5.1 7.0 69 2.6 SSW 35 46 19 25 1018.3 1018.3 0.0
24/03:30pm 12.7 5.9 6.9 68 2.8 SSW 32 48 17 26 1017.7 1017.7 0.0
24/03:00pm 12.7 6.8 7.6 71 2.5 SSW 28 37 15 20 1017.6 1017.6 0.0
24/02:30pm 13.0 6.8 7.7 70 2.6 SSW 30 41 16 22 1017.2 1017.2 0.0
24/02:00pm 12.7 8.9 9.8 82 1.5 SSW 20 28 11 15 1016.9 1016.9 0.0
24/01:30pm 13.0 8.5 9.9 81 1.6 SW 24 46 13 25 1016.6 1016.6 0.0
24/01:00pm 15.4 9.6 9.6 68 3.0 WSW 30 39 16 21 1016.1 1016.1 0.0
24/12:30pm 16.5 11.9 8.2 58 4.2 W 22 33 12 18 1015.8 1015.8 0.0
24/12:00pm 16.2 10.9 6.9 54 4.6 W 24 33 13 18 1016.0 1016.0 0.0
24/11:30am 16.2 11.7 6.1 51 4.9 W 19 30 10 16 1016.0 1016.0 0.0
24/11:00am 16.0 11.6 4.8 47 5.3 W 17 30 9 16 1015.6 1015.6 0.0
24/10:30am 16.0 8.7 2.7 41 6.0 WNW 30 44 16 24 1015.0 1015.0 0.0
24/10:05am 16.3 8.6 2.3 39 6.3 NW 32 50 17 27 1014.6 1014.6 0.0
24/10:00am 16.5 8.5 1.6 36 6.6 NW 33 50 18 27 1014.6 1014.6 0.0
24/09:30am 16.3 8.4 2.0 38 6.4 NW 33 52 18 28 1014.7 1014.7 0.0
24/09:07am 16.8 8.8 1.8 36 6.7 NW 33 52 18 28 1014.7 1014.7 0.0
24/09:00am 17.2 8.9 2.1 36 6.8 NW 35 52 19 28 1014.9 1014.9 0.0
24/08:30am 16.0 9.1 2.4 40 6.1 NNW 28 41 15 22 1015.1 1015.1 0.0
24/08:28am 16.0 9.1 2.4 40 6.1 NNW 28 41 15 22 1015.1 1015.1 0.0
24/08:00am 12.4 8.0 5.0 60 3.4 N 17 20 9 11 1014.8 1014.8 0.0
24/07:30am 11.4 5.5 3.8 59 3.4 N 24 32 13 17 1014.8 1014.8 0.0
24/07:18am 9.4 4.2 3.4 66 2.6 N 20 26 11 14 1014.9 1014.9 0.0
24/07:00am 4.0 -0.1 2.0 87 0.8 N 13 17 7 9 1014.9 1014.9 0.0
24/06:30am 3.8 0.8 2.0 88 0.7 NE 7 13 4 7 1014.9 1014.9 0.0
24/06:00am 4.2 1.7 1.7 84 1.0 SSW 4 6 2 3 1015.0 1015.0 0.0
24/05:30am 7.5 2.4 3.0 73 1.9 NNW 19 22 10 12 1014.7 1014.7 0.0
24/05:00am 6.6 2.6 3.0 78 1.5 NNW 13 17 7 9 1014.7 1014.7 0.0
24/04:30am 7.3 2.9 2.8 73 1.9 NNW 15 19 8 10 1014.7 1014.7 0.0
24/04:00am 7.1 2.4 3.3 77 1.6 NNW 17 22 9 12 1014.7 1014.7 0.0
24/03:30am 8.6 4.0 3.5 70 2.2 NNW 17 20 9 11 1014.9 1014.9 0.0
24/03:00am 7.9 4.0 3.5 74 1.9 NW 13 17 7 9 1015.2 1015.2 0.0
24/02:30am 5.3 2.1 2.9 84 1.0 NNW 9 13 5 7 1015.5 1015.5 0.0
24/02:00am 7.1 2.9 3.8 79 1.4 NNW 15 17 8 9 1016.0 1016.0 0.0
24/01:30am 7.7 3.6 4.2 78 1.5 NNW 15 17 8 9 1016.6 1016.6 0.0
24/01:00am 7.8 4.0 4.1 77 1.6 NNW 13 15 7 8 1017.0 1017.0 0.0
24/12:30am 7.9 4.2 4.5 79 1.5 NNW 13 17 7 9 1017.3 1017.3 0.0
24/12:00am 8.0 5.1 4.8 80 1.4 NNW 9 11 5 6 1017.6 1017.6 0.0
 
Date/Time
CST
Temp
°C
App
Temp
°C
Dew
Point
°C
Rel
Hum
%
Delta-T
°C
Wind Press
QNH
hPa
Press
MSL
hPa
Rain since
9am
mm
Dir  Spd
km/h
Gust
km/h
Spd
kts
Gust
kts
23/11:30pm 8.0 5.2 5.1 82 1.3 N 9 11 5 6 1017.8 1017.8 0.0
23/11:00pm 7.5 5.3 5.2 85 1.0 NNW 6 7 3 4 1017.9 1017.9 0.0
23/10:30pm 8.1 4.1 4.9 80 1.4 NNW 15 19 8 10 1018.0 1018.0 0.0
23/10:00pm 9.7 5.6 6.0 78 1.7 NNW 17 19 9 10 1018.2 1018.2 0.0
23/09:30pm 9.1 5.4 6.3 83 1.3 NNW 15 17 8 9 1018.4 1018.4 0.0
23/09:00pm 5.6 3.5 3.9 89 0.7 NNW 4 7 2 4 1018.8 1018.8 0.0
23/08:30pm 7.2 4.3 4.9 85 1.0 NNW 9 11 5 6 1019.0 1019.0 0.0
23/08:00pm 9.5 7.3 6.0 79 1.6 NNW 7 9 4 5 1019.4 1019.4 0.0
23/07:30pm 9.9 7.3 6.2 78 1.7 NNW 9 11 5 6 1019.5 1019.5 0.0
23/07:00pm 10.2 7.3 6.6 78 1.7 NNW 11 13 6 7 1019.3 1019.3 0.0
23/06:30pm 10.6 7.9 7.2 79 1.6 NNW 11 13 6 7 1019.4 1019.4 0.0
23/06:00pm 13.0 11.2 7.9 71 2.5 N 7 11 4 6 1019.6 1019.6 0.0
23/05:30pm 13.8 10.6 8.4 70 2.7 N 15 17 8 9 1019.6 1019.6 0.0
23/05:00pm 16.5 12.9 8.2 58 4.2 N 17 24 9 13 1019.5 1019.5 0.0
23/04:30pm 17.9 13.3 6.6 47 5.6 NNW 20 26 11 14 1019.6 1019.6 0.0
23/04:00pm 18.3 13.8 6.9 47 5.7 NNW 20 28 11 15 1019.5 1019.5 0.0
23/03:30pm 18.5 13.0 5.9 43 6.2 NW 24 33 13 18 1019.7 1019.7 0.0
23/03:00pm 18.5 13.0 6.1 44 6.1 NNW 24 30 13 16 1020.1 1020.1 0.0
23/02:30pm 18.6 13.2 6.3 44 6.1 NNW 24 32 13 17 1020.1 1020.1 0.0
23/02:00pm 18.9 13.3 7.0 46 6.0 NNW 26 33 14 18 1020.2 1020.2 0.0
23/01:30pm 18.2 13.1 6.0 44 6.0 NNW 22 32 12 17 1020.6 1020.6 0.0
23/01:00pm 18.0 11.7 5.9 45 5.9 NNW 28 37 15 20 1021.2 1021.2 0.0

Latest Capital City Observations: Canberra | Sydney | Melbourne | Brisbane | Adelaide | Perth | Hobart | Darwin

Other formats

Comma delimited format used in spreadsheet applications
http://www.bom.gov.au/fwo/IDS60901/IDS60901.95818.axf

JavaScript Object Notation format (JSON) in row-major order
http://www.bom.gov.au/fwo/IDS60901/IDS60901.95818.json

Data quality

Most of these data are generated automatically and are frequently updated. Quality checks on data are not normally performed. It is possible for incorrect values to appear. Refer to information at About Latest Weather Observations and please check the disclaimer before using these data.